Time;durP1;ratioP1;P1;durP2;ratioP2;P2;SDS_P1;SDS_P2;PMS_P1;PMS_P2;Temp;Humidity;BMP_temperature;BMP_pressure;BME280_temperature;BME280_humidity;BME280_pressure;Samples;Min_cycle;Max_cycle;Signal;HPM_P1;HPM_P2
2023/03/05 00:00:41;;;;;;;6.70;0.80;;;5.70;99.90;;;;;;5080028;28;20036;-71
2023/03/05 00:03:06;;;;;;;1.73;0.52;;;5.60;99.90;;;;;;5096683;28;20039;-71
2023/03/05 00:05:33;;;;;;;5.53;0.80;;;5.80;99.90;;;;;;5098638;28;20066;-71
2023/03/05 00:07:59;;;;;;;10.85;1.50;;;5.80;99.90;;;;;;5098056;28;20444;-71
2023/03/05 00:10:25;;;;;;;5.53;0.85;;;5.90;99.90;;;;;;5097735;28;20050;-71
2023/03/05 00:12:51;;;;;;;2.72;0.85;;;5.90;99.90;;;;;;5098203;28;20123;-71
2023/03/05 00:15:16;;;;;;;7.72;1.08;;;5.90;99.90;;;;;;5097838;28;20135;-71
2023/03/05 00:17:42;;;;;;;7.38;1.20;;;5.90;99.90;;;;;;5098033;28;20074;-71
2023/03/05 00:20:08;;;;;;;11.80;1.05;;;5.90;99.90;;;;;;5097099;28;20039;-71
2023/03/05 00:22:35;;;;;;;8.07;0.93;;;5.90;99.90;;;;;;5097081;28;20321;-71
2023/03/05 00:25:01;;;;;;;7.70;1.13;;;5.80;99.90;;;;;;5097670;28;20114;-71
2023/03/05 00:27:26;;;;;;;9.25;1.85;;;5.80;99.90;;;;;;5097917;28;20036;-72
2023/03/05 00:29:52;;;;;;;11.05;1.23;;;6.00;99.90;;;;;;5097290;28;20039;-71
2023/03/05 00:32:18;;;;;;;9.00;1.08;;;6.00;99.90;;;;;;5097536;28;20086;-71
2023/03/05 00:34:43;;;;;;;11.07;1.30;;;5.80;99.90;;;;;;5097802;28;20036;-71
2023/03/05 00:37:09;;;;;;;8.13;1.17;;;5.70;99.90;;;;;;5097450;28;20047;-71
2023/03/05 00:39:35;;;;;;;8.75;1.00;;;5.70;99.90;;;;;;5097404;28;20070;-71
2023/03/05 00:42:01;;;;;;;7.30;0.93;;;5.70;99.90;;;;;;5079743;28;20422;-71
2023/03/05 00:44:27;;;;;;;7.85;1.00;;;5.70;99.90;;;;;;5097640;28;20111;-71
2023/03/05 00:46:52;;;;;;;5.82;1.00;;;5.80;99.90;;;;;;5097311;28;20391;-71
2023/03/05 00:49:18;;;;;;;5.60;1.05;;;5.90;99.90;;;;;;5079346;28;20050;-71
2023/03/05 00:51:44;;;;;;;11.18;1.70;;;5.80;99.90;;;;;;5097175;28;20044;-71
2023/03/05 00:54:10;;;;;;;13.68;1.38;;;5.80;99.90;;;;;;5097451;28;20047;-71
2023/03/05 00:56:35;;;;;;;11.13;1.63;;;5.70;99.90;;;;;;5097074;28;20032;-71
2023/03/05 00:59:01;;;;;;;10.32;1.17;;;5.80;99.90;;;;;;5097106;28;20135;-71
2023/03/05 01:01:27;;;;;;;11.50;1.10;;;5.80;99.90;;;;;;5097071;28;20067;-71
2023/03/05 01:03:55;;;;;;;5.78;1.13;;;5.80;99.90;;;;;;5097105;28;20052;-71
2023/03/05 01:06:21;;;;;;;6.53;1.10;;;5.80;99.90;;;;;;5097533;28;20078;-71
2023/03/05 01:08:46;;;;;;;6.68;1.00;;;5.80;99.90;;;;;;5097234;28;20068;-71
2023/03/05 01:11:13;;;;;;;4.38;0.95;;;5.80;99.90;;;;;;5096844;28;20123;-71
2023/03/05 01:13:39;;;;;;;14.98;1.80;;;5.80;99.90;;;;;;5095807;28;20052;-71
2023/03/05 01:16:05;;;;;;;12.38;1.38;;;5.70;99.90;;;;;;5097096;28;20036;-71
2023/03/05 01:18:30;;;;;;;8.48;1.05;;;5.70;99.90;;;;;;5096724;28;20047;-71
2023/03/05 01:20:56;;;;;;;6.63;1.05;;;5.60;99.90;;;;;;5109574;28;20035;-72
2023/03/05 01:23:22;;;;;;;7.18;1.02;;;5.40;99.90;;;;;;5117423;28;20063;-71
2023/03/05 01:25:55;;;;;;;8.57;1.10;;;5.20;99.90;;;;;;5116417;28;20126;-71
2023/03/05 01:28:21;;;;;;;10.35;1.00;;;5.00;99.90;;;;;;5117081;28;20039;-71
2023/03/05 01:30:47;;;;;;;5.15;0.75;;;4.90;99.90;;;;;;5116722;28;20425;-71
2023/03/05 01:33:13;;;;;;;3.22;0.93;;;5.10;99.90;;;;;;5115982;28;20057;-71
2023/03/05 01:35:39;;;;;;;11.48;2.00;;;5.30;99.90;;;;;;5116943;28;20048;-71
2023/03/05 01:38:04;;;;;;;5.45;1.10;;;5.40;99.90;;;;;;5116872;28;20036;-71
2023/03/05 01:40:31;;;;;;;9.52;1.52;;;5.40;99.90;;;;;;5116904;28;20356;-71
2023/03/05 01:43:22;;;;;;;6.97;1.20;;;5.40;99.90;;;;;;5116958;28;20036;-71
2023/03/05 01:46:25;;;;;;;7.43;1.45;;;5.30;99.90;;;;;;5111181;28;20101;-71
2023/03/05 01:49:11;;;;;;;6.05;1.33;;;5.50;99.90;;;;;;5117129;28;20044;-71
2023/03/05 01:52:00;;;;;;;11.50;1.30;;;5.50;99.90;;;;;;5116219;28;20115;-71
2023/03/05 01:54:48;;;;;;;8.95;1.20;;;5.50;99.90;;;;;;5116465;28;20069;-71
2023/03/05 01:57:38;;;;;;;9.30;1.20;;;5.60;99.90;;;;;;5109852;28;20062;-71
2023/03/05 02:00:10;;;;;;;8.38;1.08;;;5.60;99.90;;;;;;5115424;28;20047;-71
2023/03/05 02:02:36;;;;;;;8.05;1.73;;;5.80;99.90;;;;;;5107584;28;20066;-71
2023/03/05 02:05:11;;;;;;;8.65;1.60;;;5.80;99.90;;;;;;5096656;28;20028;-71
2023/03/05 02:07:41;;;;;;;8.27;0.80;;;5.90;99.90;;;;;;5095589;28;20418;-71
2023/03/05 02:10:37;;;;;;;8.35;1.10;;;5.80;99.90;;;;;;5095131;28;20445;-71
2023/03/05 02:13:07;;;;;;;7.83;1.30;;;5.80;99.90;;;;;;5096577;28;20052;-71
2023/03/05 02:15:33;;;;;;;8.68;1.38;;;5.90;99.90;;;;;;5096281;28;20333;-71
2023/03/05 02:18:00;;;;;;;6.53;1.30;;;5.80;99.90;;;;;;5096139;28;20044;-71
2023/03/05 02:20:28;;;;;;;3.70;1.05;;;5.80;99.90;;;;;;5095222;28;20123;-71
2023/03/05 02:22:54;;;;;;;9.55;1.35;;;5.80;99.90;;;;;;5096499;28;20115;-71
2023/03/05 02:25:24;;;;;;;4.18;0.95;;;5.70;99.90;;;;;;5096941;28;20036;-71
2023/03/05 02:28:02;;;;;;;8.20;1.33;;;5.70;99.90;;;;;;5100260;28;20336;-71
2023/03/05 02:30:28;;;;;;;8.70;1.25;;;5.70;99.90;;;;;;5100018;28;20054;-71
2023/03/05 02:32:54;;;;;;;5.00;1.20;;;5.60;99.90;;;;;;5082135;28;20063;-71
2023/03/05 02:35:20;;;;;;;11.18;1.40;;;5.60;99.90;;;;;;5100094;28;20421;-71
2023/03/05 02:37:45;;;;;;;9.30;1.20;;;5.40;99.90;;;;;;5100283;28;20405;-71
2023/03/05 02:40:12;;;;;;;6.82;1.48;;;5.40;99.90;;;;;;5100059;28;20057;-71
2023/03/05 02:42:38;;;;;;;3.60;1.20;;;5.40;99.90;;;;;;5099711;28;20040;-71
2023/03/05 02:45:05;;;;;;;1.80;0.80;;;5.40;99.90;;;;;;5099649;28;20047;-71
2023/03/05 02:47:30;;;;;;;4.30;1.10;;;5.40;99.90;;;;;;5099897;28;20052;-71
2023/03/05 02:49:56;;;;;;;9.52;1.10;;;5.40;99.90;;;;;;5099868;28;20141;-71
2023/03/05 02:52:24;;;;;;;9.20;1.42;;;5.30;99.90;;;;;;5099784;28;20131;-71
2023/03/05 02:54:50;;;;;;;3.45;1.15;;;5.10;99.90;;;;;;5081531;28;20123;-71
2023/03/05 02:57:16;;;;;;;6.00;1.10;;;5.10;99.90;;;;;;5098584;28;20167;-71
2023/03/05 02:59:42;;;;;;;5.18;1.38;;;5.10;99.90;;;;;;5099364;28;20404;-71
2023/03/05 03:02:07;;;;;;;6.28;1.23;;;5.00;99.90;;;;;;5098439;28;20050;-71
2023/03/05 03:04:33;;;;;;;8.25;1.20;;;5.10;99.90;;;;;;5099533;28;20044;-71
2023/03/05 03:06:59;;;;;;;6.07;1.10;;;4.90;99.90;;;;;;5099498;28;20039;-72
2023/03/05 03:09:25;;;;;;;7.20;1.20;;;4.90;99.90;;;;;;5098983;28;20040;-71
2023/03/05 03:11:52;;;;;;;5.47;1.20;;;5.00;99.90;;;;;;5099360;28;20086;-71
2023/03/05 03:14:18;;;;;;;10.75;1.40;;;5.10;99.90;;;;;;5098417;28;20048;-72
2023/03/05 03:16:43;;;;;;;6.38;1.20;;;5.20;99.90;;;;;;5099008;28;20040;-71
2023/03/05 03:19:10;;;;;;;3.90;1.17;;;5.20;99.90;;;;;;5099307;28;20123;-71
2023/03/05 03:21:35;;;;;;;6.13;1.30;;;5.30;99.90;;;;;;5099269;28;20036;-71
2023/03/05 03:24:01;;;;;;;4.53;1.90;;;5.30;99.90;;;;;;5099196;28;20494;-71
2023/03/05 03:26:27;;;;;;;8.05;1.73;;;5.40;99.90;;;;;;5099139;28;20051;-71
2023/03/05 03:28:53;;;;;;;7.78;1.13;;;5.50;99.90;;;;;;5098767;28;20036;-71
2023/03/05 03:31:19;;;;;;;7.22;1.42;;;5.50;99.90;;;;;;5098809;28;20039;-71
2023/03/05 03:33:45;;;;;;;4.90;1.65;;;5.60;99.90;;;;;;5099027;28;20040;-71
2023/03/05 03:36:11;;;;;;;11.60;1.55;;;5.60;99.90;;;;;;5098769;28;20508;-71
2023/03/05 03:38:37;;;;;;;4.40;0.98;;;5.60;99.90;;;;;;5097901;28;20055;-71
2023/03/05 03:41:06;;;;;;;5.70;1.40;;;5.60;99.90;;;;;;5098874;28;20114;-71
2023/03/05 03:43:33;;;;;;;6.47;1.58;;;5.60;99.90;;;;;;5098798;28;20095;-73
2023/03/05 03:45:59;;;;;;;9.68;1.60;;;5.60;99.90;;;;;;5098817;28;20399;-71
2023/03/05 03:48:25;;;;;;;4.95;1.30;;;5.50;99.90;;;;;;5098607;28;20075;-71
2023/03/05 03:50:50;;;;;;;8.10;1.58;;;5.60;99.90;;;;;;5098696;28;20039;-71
2023/03/05 03:53:16;;;;;;;6.28;1.40;;;5.60;99.90;;;;;;5098630;28;20036;-71
2023/03/05 03:55:45;;;;;;;6.78;1.40;;;5.40;99.90;;;;;;5097277;28;20048;-71
2023/03/05 03:58:11;;;;;;;7.65;1.45;;;5.30;99.90;;;;;;5098391;28;20040;-71
2023/03/05 04:00:37;;;;;;;8.57;1.30;;;5.20;99.90;;;;;;5098205;28;20028;-71
2023/03/05 04:03:04;;;;;;;6.80;1.38;;;5.30;99.90;;;;;;5098136;28;20044;-70
2023/03/05 04:05:30;;;;;;;7.60;1.10;;;5.00;99.90;;;;;;5098389;28;20032;-70
2023/03/05 04:07:57;;;;;;;6.78;1.10;;;4.60;99.90;;;;;;5097340;28;20429;-70
2023/03/05 04:10:23;;;;;;;3.38;1.10;;;4.40;99.90;;;;;;5097838;28;20460;-70
2023/03/05 04:12:49;;;;;;;7.70;1.15;;;4.40;99.90;;;;;;5098143;28;20070;-71
2023/03/05 04:15:15;;;;;;;8.23;1.27;;;4.50;99.90;;;;;;5097908;28;20048;-70
2023/03/05 04:17:40;;;;;;;5.20;1.10;;;4.60;99.90;;;;;;5097856;28;20142;-70
2023/03/05 04:20:09;;;;;;;5.30;1.15;;;4.80;99.90;;;;;;5080275;28;20326;-71
2023/03/05 04:22:35;;;;;;;6.07;1.10;;;5.00;99.90;;;;;;5105099;28;20425;-70
2023/03/05 04:25:05;;;;;;;3.58;1.10;;;5.20;99.90;;;;;;5118186;28;20044;-70
2023/03/05 04:27:32;;;;;;;3.55;0.80;;;5.20;99.90;;;;;;5118335;28;20036;-70
2023/03/05 04:29:58;;;;;;;4.00;1.30;;;5.30;99.90;;;;;;5118488;28;20360;-70
2023/03/05 04:32:28;;;;;;;4.30;0.80;;;5.40;99.90;;;;;;5118044;28;20031;-70
2023/03/05 04:34:55;;;;;;;6.13;1.10;;;5.40;99.90;;;;;;5118289;28;20035;-71
2023/03/05 04:37:21;;;;;;;6.75;1.17;;;5.40;99.90;;;;;;5118101;28;20035;-71
2023/03/05 04:39:47;;;;;;;4.85;1.30;;;5.40;99.90;;;;;;5117149;28;20047;-70
2023/03/05 04:42:13;;;;;;;11.13;1.40;;;5.50;99.90;;;;;;5116746;28;20051;-70
2023/03/05 04:44:39;;;;;;;7.80;1.10;;;5.50;99.90;;;;;;5117739;28;20055;-70
2023/03/05 04:47:04;;;;;;;8.30;1.17;;;5.50;99.90;;;;;;5117987;28;20042;-70
2023/03/05 04:49:30;;;;;;;6.88;1.40;;;5.50;99.90;;;;;;5117683;28;20119;-71
2023/03/05 04:51:56;;;;;;;7.50;1.38;;;5.50;99.90;;;;;;5117900;28;20054;-71
2023/03/05 04:54:23;;;;;;;4.97;1.40;;;5.60;99.90;;;;;;5117569;28;20044;-71
2023/03/05 04:56:49;;;;;;;3.72;1.10;;;5.40;99.90;;;;;;5117505;28;20047;-71
2023/03/05 04:59:14;;;;;;;3.83;1.13;;;5.40;99.90;;;;;;5117728;28;20084;-71
2023/03/05 05:01:40;;;;;;;6.25;1.58;;;5.30;99.90;;;;;;5117595;28;20342;-71
2023/03/05 05:04:06;;;;;;;10.43;1.63;;;5.40;99.90;;;;;;5117507;28;20034;-70
2023/03/05 05:06:32;;;;;;;3.72;1.10;;;5.30;99.90;;;;;;5117489;28;20355;-71
2023/03/05 05:08:57;;;;;;;8.23;1.10;;;5.30;99.90;;;;;;5116520;28;20503;-70
2023/03/05 05:11:23;;;;;;;10.40;2.10;;;5.30;99.90;;;;;;5116361;28;20127;-71
2023/03/05 05:13:49;;;;;;;6.57;1.33;;;5.20;99.90;;;;;;5097044;28;20044;-71
2023/03/05 05:16:15;;;;;;;5.65;1.67;;;5.20;99.90;;;;;;5097024;28;20088;-70
2023/03/05 05:18:41;;;;;;;8.68;2.13;;;5.10;99.90;;;;;;5096924;28;20044;-71
2023/03/05 05:21:08;;;;;;;9.85;2.25;;;5.00;99.90;;;;;;5096776;28;20040;-70
2023/03/05 05:23:35;;;;;;;9.23;1.85;;;4.90;99.90;;;;;;5097035;28;20384;-70
2023/03/05 05:26:03;;;;;;;10.05;2.15;;;4.70;99.90;;;;;;5097041;28;20133;-70
2023/03/05 05:28:29;;;;;;;5.97;1.60;;;4.50;99.90;;;;;;5095997;28;20190;-71
2023/03/05 05:30:55;;;;;;;4.93;1.10;;;4.50;99.90;;;;;;5096501;28;20044;-70
2023/03/05 05:33:21;;;;;;;4.68;1.52;;;4.40;99.90;;;;;;5095928;28;20048;-71
2023/03/05 05:35:47;;;;;;;4.28;0.90;;;4.60;99.90;;;;;;5096639;28;20080;-70
2023/03/05 05:38:13;;;;;;;10.30;1.23;;;4.60;99.90;;;;;;5095819;28;20074;-70
2023/03/05 05:40:39;;;;;;;11.55;1.10;;;4.60;99.90;;;;;;5096846;28;20058;-71
2023/03/05 05:43:05;;;;;;;7.35;0.95;;;4.60;99.90;;;;;;5096838;28;20114;-71
2023/03/05 05:45:32;;;;;;;4.95;0.77;;;4.70;99.90;;;;;;5096832;28;20040;-71
2023/03/05 05:47:57;;;;;;;6.03;0.93;;;4.90;99.90;;;;;;5096526;28;20051;-71
2023/03/05 05:50:24;;;;;;;3.45;0.68;;;5.00;99.90;;;;;;5096778;28;20040;-71
2023/03/05 05:52:52;;;;;;;4.20;0.70;;;4.90;99.90;;;;;;5095807;28;20047;-70
2023/03/05 05:55:18;;;;;;;1.92;0.52;;;4.90;99.90;;;;;;5096741;28;20044;-71
2023/03/05 05:57:44;;;;;;;4.05;0.95;;;4.90;99.90;;;;;;5096693;28;20172;-70
2023/03/05 06:00:12;;;;;;;10.25;1.38;;;4.90;99.90;;;;;;5097152;28;20120;-70
2023/03/05 06:02:39;;;;;;;6.53;1.05;;;5.00;99.90;;;;;;5100466;28;20433;-70
2023/03/05 06:05:06;;;;;;;7.43;1.15;;;5.00;99.90;;;;;;5099415;28;20485;-70
2023/03/05 06:07:33;;;;;;;7.70;1.05;;;4.90;99.90;;;;;;5100658;28;20043;-70
2023/03/05 06:09:59;;;;;;;5.22;0.75;;;4.90;99.90;;;;;;5100503;28;20048;-70
2023/03/05 06:12:25;;;;;;;5.65;0.70;;;4.80;99.90;;;;;;5099580;28;20329;-71
2023/03/05 06:14:50;;;;;;;7.55;0.80;;;4.70;99.90;;;;;;5100540;28;20089;-70
2023/03/05 06:17:16;;;;;;;3.97;0.73;;;4.60;99.90;;;;;;5100513;28;20032;-70
2023/03/05 06:19:42;;;;;;;6.65;1.15;;;4.60;99.90;;;;;;5100413;28;20476;-70
2023/03/05 06:22:07;;;;;;;2.15;0.70;;;4.50;99.90;;;;;;5100443;28;20079;-70
2023/03/05 06:24:33;;;;;;;6.68;1.58;;;4.60;99.90;;;;;;5100328;28;20043;-70
2023/03/05 06:26:59;;;;;;;2.33;0.70;;;4.60;99.90;;;;;;5099570;28;20044;-71
2023/03/05 06:29:24;;;;;;;1.10;0.70;;;4.60;99.90;;;;;;5098971;28;20044;-70
2023/03/05 06:31:50;;;;;;;4.22;0.93;;;4.70;99.90;;;;;;5099789;28;20090;-71
2023/03/05 06:34:16;;;;;;;2.30;0.80;;;4.90;99.90;;;;;;5100044;28;20036;-71
2023/03/05 06:36:43;;;;;;;2.50;0.60;;;4.90;99.90;;;;;;5099865;28;20040;-70
2023/03/05 06:39:08;;;;;;;4.03;0.90;;;5.00;99.90;;;;;;5100035;28;20048;-71
2023/03/05 06:41:34;;;;;;;7.85;1.05;;;5.00;99.90;;;;;;5098962;28;20059;-70
2023/03/05 06:44:03;;;;;;;2.45;0.70;;;5.00;99.90;;;;;;5099940;28;20036;-70
2023/03/05 06:46:32;;;;;;;3.97;0.80;;;5.00;99.90;;;;;;5098639;28;20040;-70
2023/03/05 06:49:00;;;;;;;6.13;0.85;;;5.00;99.90;;;;;;5099875;28;20115;-71
2023/03/05 06:51:30;;;;;;;7.07;1.17;;;5.10;99.90;;;;;;5099581;28;20127;-70
2023/03/05 06:54:00;;;;;;;3.70;0.80;;;5.00;99.90;;;;;;5099503;28;20040;-71
2023/03/05 06:56:26;;;;;;;4.90;0.90;;;5.10;99.90;;;;;;5099505;28;20043;-70
2023/03/05 06:58:52;;;;;;;4.28;0.60;;;5.20;99.90;;;;;;5099323;28;20036;-71
2023/03/05 07:01:19;;;;;;;4.82;0.80;;;5.20;99.90;;;;;;5099620;28;20043;-71
2023/03/05 07:03:48;;;;;;;5.18;0.80;;;5.30;99.90;;;;;;5098416;28;20115;-70
2023/03/05 07:06:14;;;;;;;5.53;0.90;;;5.40;99.90;;;;;;5099246;28;20341;-71
2023/03/05 07:08:41;;;;;;;5.07;0.90;;;5.40;99.90;;;;;;5098538;28;20044;-71
2023/03/05 07:11:17;;;;;;;5.55;1.00;;;5.40;99.90;;;;;;5098755;28;20056;-71
2023/03/05 07:13:46;;;;;;;3.58;0.85;;;5.40;99.90;;;;;;5099995;28;20082;-70
2023/03/05 07:16:15;;;;;;;7.05;1.00;;;5.40;99.90;;;;;;5099124;28;20047;-71
2023/03/05 07:18:40;;;;;;;13.50;1.35;;;5.50;99.90;;;;;;5099218;28;20040;-71
2023/03/05 07:21:08;;;;;;;4.53;1.02;;;5.50;99.90;;;;;;5099007;28;20039;-70
2023/03/05 07:23:35;;;;;;;4.07;1.00;;;5.50;99.90;;;;;;5099218;28;20097;-71
2023/03/05 07:26:02;;;;;;;4.65;1.10;;;5.50;99.90;;;;;;5099679;28;20043;-71
2023/03/05 07:28:28;;;;;;;4.93;1.10;;;5.60;99.90;;;;;;5099137;28;20200;-71
2023/03/05 07:31:00;;;;;;;13.30;1.55;;;5.60;99.90;;;;;;5097718;28;20044;-71
2023/03/05 07:33:26;;;;;;;5.80;1.10;;;5.60;99.90;;;;;;5099028;28;20036;-71
2023/03/05 07:35:52;;;;;;;4.63;1.00;;;5.50;99.90;;;;;;5098999;28;20040;-71
2023/03/05 07:38:18;;;;;;;9.77;1.40;;;5.60;99.90;;;;;;5098874;28;20093;-71
2023/03/05 07:40:44;;;;;;;9.70;1.48;;;5.80;99.90;;;;;;5097536;28;20408;-71
2023/03/05 07:43:10;;;;;;;8.05;1.50;;;5.80;99.90;;;;;;5098863;28;20036;-71
2023/03/05 07:45:39;;;;;;;5.55;1.13;;;5.80;99.90;;;;;;5098787;28;20032;-71
2023/03/05 07:48:05;;;;;;;7.15;0.90;;;5.70;99.90;;;;;;5098446;28;20452;-71
2023/03/05 07:50:32;;;;;;;8.25;1.13;;;5.70;99.90;;;;;;5098766;28;20328;-71
2023/03/05 07:52:58;;;;;;;11.55;1.08;;;5.60;99.90;;;;;;5098718;28;20036;-70
2023/03/05 07:55:24;;;;;;;7.13;1.35;;;5.80;99.90;;;;;;5097318;28;20048;-71
2023/03/05 07:57:50;;;;;;;5.60;0.95;;;5.90;99.90;;;;;;5098494;28;20093;-71
2023/03/05 08:00:16;;;;;;;6.18;0.80;;;5.80;99.90;;;;;;5098784;28;20028;-71
2023/03/05 08:02:41;;;;;;;5.82;1.27;;;6.10;99.90;;;;;;5098148;28;20040;-71
2023/03/05 08:05:07;;;;;;;4.43;0.80;;;6.20;99.90;;;;;;5098455;28;20439;-71
2023/03/05 08:07:33;;;;;;;6.50;1.00;;;6.30;99.90;;;;;;5098396;28;20036;-71
2023/03/05 08:09:58;;;;;;;9.73;1.70;;;6.30;99.90;;;;;;5098057;28;20060;-71
2023/03/05 08:12:24;;;;;;;7.30;1.30;;;6.40;99.90;;;;;;5098282;28;20113;-71
2023/03/05 08:14:51;;;;;;;7.88;1.00;;;6.40;99.90;;;;;;5098301;28;20302;-70
2023/03/05 08:17:17;;;;;;;13.38;1.40;;;6.30;99.90;;;;;;5098210;28;20040;-71
2023/03/05 08:19:43;;;;;;;6.38;0.88;;;6.30;99.90;;;;;;5097809;28;20040;-71
2023/03/05 08:22:09;;;;;;;15.35;1.17;;;6.30;99.90;;;;;;5098169;28;20041;-71
2023/03/05 08:24:34;;;;;;;5.78;1.48;;;6.40;99.90;;;;;;5097545;28;20044;-70
2023/03/05 08:27:39;;;;;;;15.13;1.60;;;6.40;99.90;;;;;;5098054;28;20040;-70
2023/03/05 08:30:05;;;;;;;2.83;0.80;;;6.40;99.90;;;;;;5098299;28;20048;-70
2023/03/05 08:32:31;;;;;;;5.78;1.80;;;6.40;99.90;;;;;;5096907;28;20148;-71
2023/03/05 08:34:57;;;;;;;7.28;1.20;;;6.50;99.90;;;;;;5097082;28;20502;-70
2023/03/05 08:37:23;;;;;;;13.23;1.20;;;6.20;99.90;;;;;;5093614;28;20173;-68
2023/03/05 08:39:49;;;;;;;10.35;1.40;;;6.10;99.90;;;;;;5096149;28;20067;-67
2023/03/05 08:42:15;;;;;;;14.18;1.08;;;5.90;99.90;;;;;;5097174;28;20125;-68
2023/03/05 08:44:40;;;;;;;12.23;1.25;;;5.60;99.90;;;;;;5097660;28;20042;-67
2023/03/05 08:47:07;;;;;;;7.68;1.10;;;5.70;99.90;;;;;;5090754;28;20039;-67
2023/03/05 08:49:32;;;;;;;11.27;1.58;;;5.70;99.90;;;;;;5082410;28;20076;-68
2023/03/05 08:51:58;;;;;;;12.60;0.93;;;6.00;99.90;;;;;;5077716;28;20076;-68
2023/03/05 08:54:24;;;;;;;9.13;1.33;;;6.20;99.90;;;;;;5096412;28;20039;-68
2023/03/05 08:56:49;;;;;;;7.20;1.05;;;6.00;99.90;;;;;;5091982;28;20044;-68
2023/03/05 08:59:15;;;;;;;9.80;0.98;;;6.00;99.90;;;;;;5092623;28;20036;-67
2023/03/05 09:01:44;;;;;;;8.43;1.20;;;6.10;99.90;;;;;;5074993;28;20037;-68
2023/03/05 09:04:09;;;;;;;7.75;0.90;;;6.20;99.90;;;;;;5077089;28;20476;-67
2023/03/05 09:06:39;;;;;;;17.27;1.40;;;6.10;99.90;;;;;;5077099;28;20032;-67
2023/03/05 09:09:06;;;;;;;10.77;1.77;;;6.10;99.90;;;;;;5077017;28;20044;-67
2023/03/05 09:11:34;;;;;;;8.32;0.98;;;6.20;99.90;;;;;;5076616;28;20044;-72
2023/03/05 09:14:04;;;;;;;6.43;1.02;;;6.30;99.90;;;;;;5077000;28;20041;-66
2023/03/05 09:16:29;;;;;;;9.85;1.05;;;6.40;99.90;;;;;;5076593;28;20072;-68
2023/03/05 09:18:55;;;;;;;10.02;1.00;;;6.60;99.90;;;;;;5076814;28;20083;-70
2023/03/05 09:21:21;;;;;;;11.55;1.20;;;6.70;99.90;;;;;;5076928;28;20041;-68
2023/03/05 09:23:46;;;;;;;8.02;1.02;;;6.70;99.90;;;;;;5076543;28;20037;-68
2023/03/05 09:26:14;;;;;;;4.07;0.70;;;6.50;99.90;;;;;;5077063;28;20032;-68
2023/03/05 09:28:41;;;;;;;4.47;1.00;;;6.00;99.90;;;;;;5076792;28;20040;-67
2023/03/05 09:31:08;;;;;;;7.10;1.00;;;5.60;99.90;;;;;;5076419;28;20040;-67
2023/03/05 09:33:35;;;;;;;3.83;0.70;;;5.60;99.90;;;;;;5076786;28;20441;-67
2023/03/05 09:36:01;;;;;;;3.33;0.68;;;5.80;99.90;;;;;;5108303;28;20311;-67
2023/03/05 09:38:27;;;;;;;2.30;0.40;;;6.00;99.90;;;;;;5076325;28;20449;-68
2023/03/05 09:40:53;;;;;;;3.00;0.47;;;6.20;99.90;;;;;;5076716;28;20037;-68
2023/03/05 09:43:35;;;;;;;6.47;0.80;;;6.30;99.90;;;;;;5076278;28;20052;-67
2023/03/05 09:46:19;;;;;;;4.00;0.50;;;6.40;99.90;;;;;;5077260;28;20041;-67
2023/03/05 09:49:29;;;;;;;3.67;0.60;;;6.40;99.90;;;;;;5076661;28;20046;-67
2023/03/05 09:52:10;;;;;;;2.65;0.40;;;6.40;99.90;;;;;;5076602;28;20047;-68
2023/03/05 09:54:42;;;;;;;4.07;0.63;;;6.50;99.90;;;;;;5076628;28;20093;-68
2023/03/05 09:57:34;;;;;;;4.15;0.70;;;6.60;99.90;;;;;;5076591;28;20097;-67
2023/03/05 10:00:07;;;;;;;5.57;0.80;;;6.80;99.90;;;;;;5076544;28;20106;-67
2023/03/05 10:02:38;;;;;;;4.65;0.82;;;6.60;99.90;;;;;;5076081;28;20109;-68
2023/03/05 10:05:19;;;;;;;4.75;0.52;;;6.80;99.90;;;;;;5076508;28;20045;-67
2023/03/05 10:07:57;;;;;;;4.72;0.77;;;6.80;99.90;;;;;;5076466;28;20033;-67
2023/03/05 10:10:37;;;;;;;1.88;0.70;;;6.80;99.90;;;;;;5075964;28;20503;-67
2023/03/05 10:13:19;;;;;;;5.88;0.82;;;6.90;99.90;;;;;;5076434;28;20060;-68
2023/03/05 10:16:22;;;;;;;4.72;1.00;;;7.00;99.90;;;;;;5076330;28;20089;-67
2023/03/05 10:18:51;;;;;;;5.35;0.88;;;7.00;99.90;;;;;;5076271;28;20415;-67
2023/03/05 10:21:46;;;;;;;4.32;0.98;;;7.00;99.90;;;;;;5075968;28;20426;-67
2023/03/05 10:24:20;;;;;;;7.97;0.85;;;6.90;99.90;;;;;;5076310;28;20040;-68
2023/03/05 10:26:53;;;;;;;8.35;0.82;;;6.90;99.90;;;;;;5076280;28;20048;-68
2023/03/05 10:29:37;;;;;;;6.35;0.93;;;7.20;99.90;;;;;;5075943;28;20354;-68
2023/03/05 10:32:29;;;;;;;9.25;0.75;;;7.60;99.90;;;;;;5075817;28;20036;-68
2023/03/05 10:34:58;;;;;;;5.65;0.88;;;7.80;99.90;;;;;;5076217;28;20036;-68
2023/03/05 10:37:32;;;;;;;12.30;1.05;;;8.10;99.90;;;;;;5076101;28;20044;-68
2023/03/05 10:40:31;;;;;;;10.63;0.70;;;7.90;99.90;;;;;;5076042;28;20048;-68
2023/03/05 10:43:02;;;;;;;4.20;0.60;;;7.90;99.90;;;;;;5075884;28;20036;-70
2023/03/05 10:45:37;;;;;;;6.88;0.65;;;8.10;99.90;;;;;;5076077;28;20130;-69
2023/03/05 10:48:36;;;;;;;7.40;0.95;;;8.30;99.90;;;;;;5079261;28;20041;-70
2023/03/05 10:51:18;;;;;;;9.40;0.80;;;8.50;99.90;;;;;;5079653;28;20044;-70
2023/03/05 10:53:43;;;;;;;4.00;0.68;;;8.50;99.90;;;;;;5112453;28;20097;-70
2023/03/05 10:56:10;;;;;;;7.28;0.70;;;8.60;99.90;;;;;;5079834;28;20446;-69
2023/03/05 10:58:36;;;;;;;3.63;0.40;;;8.60;99.90;;;;;;5078377;28;20051;-67
2023/03/05 11:01:11;;;;;;;4.65;0.40;;;8.20;99.90;;;;;;5111555;28;20330;-68
2023/03/05 11:04:00;;;;;;;5.05;0.30;;;8.10;99.90;;;;;;5079136;28;20414;-67
2023/03/05 11:06:41;;;;;;;7.18;0.70;;;7.90;99.90;;;;;;5078484;28;20056;-68
2023/03/05 11:09:35;;;;;;;11.45;1.05;;;8.50;99.90;;;;;;5079216;28;20044;-68
2023/03/05 11:12:07;;;;;;;6.28;0.73;;;8.80;99.90;;;;;;5078159;28;20409;-68
2023/03/05 11:14:35;;;;;;;4.88;0.65;;;8.80;99.90;;;;;;5078067;28;20080;-67
2023/03/05 11:17:21;;;;;;;4.63;0.68;;;8.90;99.90;;;;;;5076718;28;20044;-68
2023/03/05 11:19:47;;;;;;;4.30;0.60;;;9.00;99.90;;;;;;5077627;28;20445;-69
2023/03/05 11:22:17;;;;;;;5.55;0.47;;;9.40;99.90;;;;;;5110485;28;20044;-68
2023/03/05 11:24:45;;;;;;;5.80;0.50;;;9.50;99.90;;;;;;5077796;28;20043;-67
2023/03/05 11:27:31;;;;;;;7.68;0.93;;;9.70;99.90;;;;;;5077548;28;20442;-70
2023/03/05 11:29:57;;;;;;;4.82;0.47;;;9.80;99.90;;;;;;5077878;28;20044;-68
2023/03/05 11:32:26;;;;;;;6.85;0.70;;;9.70;99.90;;;;;;5077371;28;20044;-70
2023/03/05 11:34:53;;;;;;;4.78;0.60;;;9.30;99.90;;;;;;5076441;28;20345;-68
2023/03/05 11:37:28;;;;;;;5.18;0.47;;;9.50;99.90;;;;;;5077765;28;20055;-68
2023/03/05 11:40:09;;;;;;;5.13;0.60;;;9.30;99.90;;;;;;5077572;28;20076;-68
2023/03/05 11:42:39;;;;;;;6.57;0.50;;;9.20;99.90;;;;;;5077620;28;20044;-67
2023/03/05 11:45:05;;;;;;;4.28;0.38;;;9.60;99.90;;;;;;5110496;28;20306;-68
2023/03/05 11:47:38;;;;;;;9.55;0.50;;;9.50;99.90;;;;;;5077566;28;20068;-68
2023/03/05 11:50:15;;;;;;;7.00;0.77;;;9.50;99.90;;;;;;5078095;28;20439;-70
2023/03/05 11:52:49;;;;;;;3.90;0.50;;;9.80;99.90;;;;;;5088057;28;20040;-69
2023/03/05 11:55:26;;;;;;;3.30;0.40;;;9.50;99.90;;;;;;5076201;28;20040;-68
2023/03/05 11:58:14;;;;;;;1.55;0.20;;;9.70;99.90;;;;;;5076011;28;20162;-68
2023/03/05 12:00:43;;;;;;;5.75;0.40;;;9.80;99.90;;;;;;5089952;28;20039;-69
2023/03/05 12:03:23;;;;;;;4.00;0.50;;;9.50;99.90;;;;;;5080104;28;20048;-68
2023/03/05 12:05:52;;;;;;;8.88;0.50;;;9.40;99.90;;;;;;5077000;28;20120;-68
2023/03/05 12:08:24;;;;;;;2.33;0.43;;;9.50;99.90;;;;;;5076868;28;20051;-69
2023/03/05 12:10:50;;;;;;;7.50;0.65;;;9.30;99.90;;;;;;5030424;28;1337237;-68
2023/03/05 12:13:36;;;;;;;6.20;0.40;;;8.90;99.90;;;;;;5077874;28;20514;-68
2023/03/05 12:16:26;;;;;;;5.45;0.40;;;9.10;99.90;;;;;;5086414;28;20036;-69
2023/03/05 12:19:33;;;;;;;4.47;0.30;;;9.60;99.90;;;;;;5097594;28;20043;-68
2023/03/05 12:21:59;;;;;;;8.43;0.63;;;9.50;99.90;;;;;;5098108;28;20310;-68
2023/03/05 12:24:27;;;;;;;7.38;0.80;;;9.20;99.90;;;;;;5098043;28;20111;-68
2023/03/05 12:27:02;;;;;;;4.43;0.88;;;8.80;99.90;;;;;;5098014;28;20032;-68
2023/03/05 12:29:51;;;;;;;7.80;0.65;;;8.70;99.90;;;;;;5097977;28;20044;-67
2023/03/05 12:32:30;;;;;;;3.58;0.43;;;8.70;99.90;;;;;;5097300;28;20046;-68
2023/03/05 12:35:03;;;;;;;1.95;0.22;;;8.90;99.90;;;;;;5097952;28;20044;-69
2023/03/05 12:37:28;;;;;;;4.55;0.45;;;9.00;99.90;;;;;;5097904;28;20059;-75
2023/03/05 12:40:11;;;;;;;2.80;0.50;;;9.00;99.90;;;;;;5096409;28;20048;-78
2023/03/05 12:42:37;;;;;;;8.07;0.55;;;9.10;99.90;;;;;;5096505;28;20054;-66
2023/03/05 12:45:08;;;;;;;3.42;0.32;;;9.10;99.90;;;;;;5096339;28;20126;-67
2023/03/05 12:48:10;;;;;;;9.70;0.88;;;9.20;99.90;;;;;;5097620;28;20047;-67
2023/03/05 12:50:36;;;;;;;4.60;0.50;;;9.40;99.90;;;;;;5096415;28;20051;-67
2023/03/05 12:53:19;;;;;;;6.90;0.43;;;9.70;99.90;;;;;;5097530;28;20048;-67
2023/03/05 12:55:54;;;;;;;4.32;0.28;;;10.20;99.90;;;;;;5097190;28;20496;-67
2023/03/05 12:58:44;;;;;;;3.30;0.40;;;9.60;99.90;;;;;;5079196;28;20048;-67
2023/03/05 13:01:15;;;;;;;4.82;0.35;;;9.30;99.90;;;;;;5097053;28;20036;-67
2023/03/05 13:03:51;;;;;;;2.60;0.52;;;9.20;99.90;;;;;;5097132;28;20173;-67
2023/03/05 13:06:32;;;;;;;7.00;0.70;;;9.10;99.90;;;;;;5097647;28;20036;-67
2023/03/05 13:09:07;;;;;;;6.93;0.45;;;9.30;99.90;;;;;;5076694;28;20048;-67